sensor_id;sensor_type;location;lat;lon;timestamp;pressure;altitude;pressure_sealevel;temperature;humidity
5283;BME280;15376;48.540;9.268;2022-08-21T00:01:19;97624.34;;;13.65;100.00
5283;BME280;15376;48.540;9.268;2022-08-21T00:03:46;97628.16;;;13.91;100.00
5283;BME280;15376;48.540;9.268;2022-08-21T00:06:12;97632.28;;;14.00;100.00
5283;BME280;15376;48.540;9.268;2022-08-21T00:08:38;97619.34;;;13.97;100.00
5283;BME280;15376;48.540;9.268;2022-08-21T00:11:05;97631.47;;;14.06;100.00
5283;BME280;15376;48.540;9.268;2022-08-21T00:13:31;97622.63;;;14.06;100.00
5283;BME280;15376;48.540;9.268;2022-08-21T00:15:57;97614.84;;;13.97;100.00
5283;BME280;15376;48.540;9.268;2022-08-21T00:18:23;97618.34;;;13.98;100.00
5283;BME280;15376;48.540;9.268;2022-08-21T00:20:49;97614.16;;;13.82;100.00
5283;BME280;15376;48.540;9.268;2022-08-21T00:23:14;97617.88;;;13.88;100.00
5283;BME280;15376;48.540;9.268;2022-08-21T00:25:41;97616.84;;;13.82;100.00
5283;BME280;15376;48.540;9.268;2022-08-21T00:28:07;97620.25;;;13.69;100.00
5283;BME280;15376;48.540;9.268;2022-08-21T00:30:33;97602.19;;;13.65;100.00
5283;BME280;15376;48.540;9.268;2022-08-21T00:32:59;97616.81;;;13.76;100.00
5283;BME280;15376;48.540;9.268;2022-08-21T00:35:33;97612.50;;;13.75;100.00
5283;BME280;15376;48.540;9.268;2022-08-21T00:38:00;97605.47;;;13.67;100.00
5283;BME280;15376;48.540;9.268;2022-08-21T00:40:30;97621.75;;;13.79;100.00
5283;BME280;15376;48.540;9.268;2022-08-21T00:42:56;97617.78;;;13.68;100.00
5283;BME280;15376;48.540;9.268;2022-08-21T00:45:22;97625.97;;;13.53;100.00
5283;BME280;15376;48.540;9.268;2022-08-21T00:47:48;97622.63;;;13.45;100.00
5283;BME280;15376;48.540;9.268;2022-08-21T00:50:14;97619.91;;;13.38;100.00
5283;BME280;15376;48.540;9.268;2022-08-21T00:52:41;97617.16;;;13.18;100.00
5283;BME280;15376;48.540;9.268;2022-08-21T00:55:08;97616.41;;;13.03;100.00
5283;BME280;15376;48.540;9.268;2022-08-21T00:57:42;97619.78;;;12.90;100.00
5283;BME280;15376;48.540;9.268;2022-08-21T01:00:12;97609.56;;;12.94;100.00
5283;BME280;15376;48.540;9.268;2022-08-21T01:02:38;97614.19;;;13.07;100.00
5283;BME280;15376;48.540;9.268;2022-08-21T01:05:05;97610.72;;;13.13;100.00
5283;BME280;15376;48.540;9.268;2022-08-21T01:07:31;97620.03;;;13.17;100.00
5283;BME280;15376;48.540;9.268;2022-08-21T01:09:57;97618.81;;;13.19;100.00
5283;BME280;15376;48.540;9.268;2022-08-21T01:12:23;97619.00;;;13.18;100.00
5283;BME280;15376;48.540;9.268;2022-08-21T01:14:49;97615.19;;;13.06;100.00
5283;BME280;15376;48.540;9.268;2022-08-21T01:17:15;97617.97;;;12.91;100.00
5283;BME280;15376;48.540;9.268;2022-08-21T01:19:41;97596.78;;;12.83;100.00
5283;BME280;15376;48.540;9.268;2022-08-21T01:22:06;97619.41;;;12.93;100.00
5283;BME280;15376;48.540;9.268;2022-08-21T01:24:33;97615.34;;;12.97;100.00
5283;BME280;15376;48.540;9.268;2022-08-21T01:26:59;97594.94;;;12.83;100.00
5283;BME280;15376;48.540;9.268;2022-08-21T01:31:53;97610.72;;;12.78;100.00
5283;BME280;15376;48.540;9.268;2022-08-21T01:34:19;97614.28;;;12.64;100.00
5283;BME280;15376;48.540;9.268;2022-08-21T01:36:46;97609.72;;;12.58;100.00
5283;BME280;15376;48.540;9.268;2022-08-21T01:39:12;97613.47;;;12.42;100.00
5283;BME280;15376;48.540;9.268;2022-08-21T01:41:38;97604.00;;;12.61;100.00
5283;BME280;15376;48.540;9.268;2022-08-21T01:44:03;97567.22;;;12.22;100.00
5283;BME280;15376;48.540;9.268;2022-08-21T01:46:29;97600.50;;;12.32;100.00
5283;BME280;15376;48.540;9.268;2022-08-21T01:48:54;97606.44;;;12.34;100.00
5283;BME280;15376;48.540;9.268;2022-08-21T01:51:20;97603.41;;;12.38;100.00
5283;BME280;15376;48.540;9.268;2022-08-21T01:53:45;97600.34;;;12.41;100.00
5283;BME280;15376;48.540;9.268;2022-08-21T01:56:12;97601.41;;;12.46;100.00
5283;BME280;15376;48.540;9.268;2022-08-21T01:58:40;97589.16;;;12.52;100.00
5283;BME280;15376;48.540;9.268;2022-08-21T02:01:05;97595.28;;;12.74;100.00
5283;BME280;15376;48.540;9.268;2022-08-21T02:03:31;97595.88;;;12.69;100.00
5283;BME280;15376;48.540;9.268;2022-08-21T02:05:56;97552.00;;;12.44;100.00
5283;BME280;15376;48.540;9.268;2022-08-21T02:08:22;97585.59;;;12.66;100.00
5283;BME280;15376;48.540;9.268;2022-08-21T02:10:51;97568.38;;;12.41;100.00
5283;BME280;15376;48.540;9.268;2022-08-21T02:13:18;97550.03;;;12.24;100.00
5283;BME280;15376;48.540;9.268;2022-08-21T02:15:43;97594.41;;;12.39;100.00
5283;BME280;15376;48.540;9.268;2022-08-21T02:18:09;97591.81;;;12.24;100.00
5283;BME280;15376;48.540;9.268;2022-08-21T02:20:38;97586.09;;;12.06;100.00
5283;BME280;15376;48.540;9.268;2022-08-21T02:23:07;97580.13;;;12.03;100.00
5283;BME280;15376;48.540;9.268;2022-08-21T02:25:33;97560.41;;;11.77;100.00
5283;BME280;15376;48.540;9.268;2022-08-21T02:27:59;97585.59;;;11.95;100.00
5283;BME280;15376;48.540;9.268;2022-08-21T02:30:31;97583.59;;;12.04;100.00
5283;BME280;15376;48.540;9.268;2022-08-21T02:32:58;97576.66;;;12.24;100.00
5283;BME280;15376;48.540;9.268;2022-08-21T02:35:24;97574.63;;;12.26;100.00
5283;BME280;15376;48.540;9.268;2022-08-21T02:37:58;97576.72;;;12.31;100.00
5283;BME280;15376;48.540;9.268;2022-08-21T02:40:27;97575.69;;;12.11;100.00
5283;BME280;15376;48.540;9.268;2022-08-21T02:42:53;97573.34;;;12.01;100.00
5283;BME280;15376;48.540;9.268;2022-08-21T02:45:19;97575.13;;;11.94;100.00
5283;BME280;15376;48.540;9.268;2022-08-21T02:48:05;97578.75;;;11.86;100.00
5283;BME280;15376;48.540;9.268;2022-08-21T02:50:34;97578.75;;;11.86;100.00
5283;BME280;15376;48.540;9.268;2022-08-21T02:53:00;97584.81;;;11.80;100.00
5283;BME280;15376;48.540;9.268;2022-08-21T02:55:28;97580.03;;;11.76;100.00
5283;BME280;15376;48.540;9.268;2022-08-21T02:57:56;97582.97;;;11.66;100.00
5283;BME280;15376;48.540;9.268;2022-08-21T03:00:24;97584.81;;;11.65;100.00
5283;BME280;15376;48.540;9.268;2022-08-21T03:02:50;97583.16;;;11.64;100.00
5283;BME280;15376;48.540;9.268;2022-08-21T03:05:17;97582.53;;;11.62;100.00
5283;BME280;15376;48.540;9.268;2022-08-21T03:07:44;97595.19;;;11.60;100.00
5283;BME280;15376;48.540;9.268;2022-08-21T03:10:10;97588.03;;;11.61;100.00
5283;BME280;15376;48.540;9.268;2022-08-21T03:12:36;97562.22;;;11.40;100.00
5283;BME280;15376;48.540;9.268;2022-08-21T03:15:06;97578.34;;;11.53;100.00
5283;BME280;15376;48.540;9.268;2022-08-21T03:17:33;97571.03;;;11.41;100.00
5283;BME280;15376;48.540;9.268;2022-08-21T03:19:59;97558.09;;;11.38;100.00
5283;BME280;15376;48.540;9.268;2022-08-21T03:22:25;97585.38;;;11.61;100.00
5283;BME280;15376;48.540;9.268;2022-08-21T03:24:51;97588.63;;;11.56;100.00
5283;BME280;15376;48.540;9.268;2022-08-21T03:27:16;97587.81;;;11.41;100.00
5283;BME280;15376;48.540;9.268;2022-08-21T03:29:42;97590.56;;;11.33;100.00
5283;BME280;15376;48.540;9.268;2022-08-21T03:32:07;97589.63;;;11.26;100.00
5283;BME280;15376;48.540;9.268;2022-08-21T03:34:36;97572.25;;;11.09;100.00
5283;BME280;15376;48.540;9.268;2022-08-21T03:37:03;97583.06;;;11.07;100.00
5283;BME280;15376;48.540;9.268;2022-08-21T03:39:29;97592.41;;;11.18;100.00
5283;BME280;15376;48.540;9.268;2022-08-21T03:41:54;97563.91;;;11.12;100.00
5283;BME280;15376;48.540;9.268;2022-08-21T03:44:20;97589.81;;;11.24;100.00
5283;BME280;15376;48.540;9.268;2022-08-21T03:46:45;97569.84;;;11.28;100.00
5283;BME280;15376;48.540;9.268;2022-08-21T03:49:11;97595.50;;;11.36;100.00
5283;BME280;15376;48.540;9.268;2022-08-21T03:51:37;97590.81;;;11.38;100.00
5283;BME280;15376;48.540;9.268;2022-08-21T03:54:02;97590.63;;;11.54;100.00
5283;BME280;15376;48.540;9.268;2022-08-21T03:56:28;97599.75;;;11.66;100.00
5283;BME280;15376;48.540;9.268;2022-08-21T03:58:53;97577.84;;;11.64;100.00
5283;BME280;15376;48.540;9.268;2022-08-21T04:01:19;97594.53;;;11.88;100.00
5283;BME280;15376;48.540;9.268;2022-08-21T04:03:44;97599.94;;;11.80;100.00
5283;BME280;15376;48.540;9.268;2022-08-21T04:06:09;97589.84;;;11.60;100.00
5283;BME280;15376;48.540;9.268;2022-08-21T04:08:35;97573.97;;;11.31;100.00
5283;BME280;15376;48.540;9.268;2022-08-21T04:11:00;97598.25;;;11.28;100.00
5283;BME280;15376;48.540;9.268;2022-08-21T04:13:26;97602.22;;;11.17;100.00
5283;BME280;15376;48.540;9.268;2022-08-21T04:15:53;97593.31;;;11.25;100.00
5283;BME280;15376;48.540;9.268;2022-08-21T04:18:19;97600.00;;;11.21;100.00
5283;BME280;15376;48.540;9.268;2022-08-21T04:20:47;97603.25;;;11.16;100.00
5283;BME280;15376;48.540;9.268;2022-08-21T04:23:13;97601.78;;;11.14;100.00
5283;BME280;15376;48.540;9.268;2022-08-21T04:25:38;97617.88;;;11.27;100.00
5283;BME280;15376;48.540;9.268;2022-08-21T04:28:04;97610.25;;;11.39;100.00
5283;BME280;15376;48.540;9.268;2022-08-21T04:30:29;97610.09;;;11.40;100.00
5283;BME280;15376;48.540;9.268;2022-08-21T04:32:55;97614.47;;;11.33;100.00
5283;BME280;15376;48.540;9.268;2022-08-21T04:35:23;97620.16;;;11.30;100.00
5283;BME280;15376;48.540;9.268;2022-08-21T04:37:48;97593.03;;;11.20;100.00
5283;BME280;15376;48.540;9.268;2022-08-21T04:40:16;97624.19;;;11.55;100.00
5283;BME280;15376;48.540;9.268;2022-08-21T04:42:45;97607.50;;;11.47;100.00
5283;BME280;15376;48.540;9.268;2022-08-21T04:45:23;97630.06;;;11.51;100.00
5283;BME280;15376;48.540;9.268;2022-08-21T04:47:50;97628.16;;;11.45;100.00
5283;BME280;15376;48.540;9.268;2022-08-21T04:50:16;97621.09;;;11.37;100.00
5283;BME280;15376;48.540;9.268;2022-08-21T04:52:42;97633.66;;;11.43;100.00
5283;BME280;15376;48.540;9.268;2022-08-21T04:55:08;97636.31;;;11.43;100.00
5283;BME280;15376;48.540;9.268;2022-08-21T04:57:34;97626.94;;;11.47;100.00
5283;BME280;15376;48.540;9.268;2022-08-21T05:00:01;97612.94;;;11.39;100.00
5283;BME280;15376;48.540;9.268;2022-08-21T05:02:28;97622.00;;;11.44;100.00
5283;BME280;15376;48.540;9.268;2022-08-21T05:04:54;97632.41;;;11.60;100.00
5283;BME280;15376;48.540;9.268;2022-08-21T05:07:24;97623.88;;;11.65;100.00
5283;BME280;15376;48.540;9.268;2022-08-21T05:09:50;97634.16;;;11.83;100.00
5283;BME280;15376;48.540;9.268;2022-08-21T05:12:16;97630.22;;;11.79;100.00
5283;BME280;15376;48.540;9.268;2022-08-21T05:14:42;97638.47;;;11.84;100.00
5283;BME280;15376;48.540;9.268;2022-08-21T05:17:08;97640.66;;;11.95;100.00
5283;BME280;15376;48.540;9.268;2022-08-21T05:19:34;97639.28;;;11.99;100.00
5283;BME280;15376;48.540;9.268;2022-08-21T05:21:59;97641.78;;;12.07;100.00
5283;BME280;15376;48.540;9.268;2022-08-21T05:24:26;97635.84;;;12.05;100.00
5283;BME280;15376;48.540;9.268;2022-08-21T05:26:51;97646.03;;;12.38;100.00
5283;BME280;15376;48.540;9.268;2022-08-21T05:29:17;97647.78;;;12.52;100.00
5283;BME280;15376;48.540;9.268;2022-08-21T05:31:43;97646.63;;;12.61;100.00
5283;BME280;15376;48.540;9.268;2022-08-21T05:34:09;97651.19;;;12.67;100.00
5283;BME280;15376;48.540;9.268;2022-08-21T05:36:34;97640.41;;;12.75;100.00
5283;BME280;15376;48.540;9.268;2022-08-21T05:39:00;97641.88;;;12.84;100.00
5283;BME280;15376;48.540;9.268;2022-08-21T05:41:25;97633.94;;;12.91;100.00
5283;BME280;15376;48.540;9.268;2022-08-21T05:43:50;97641.63;;;13.00;100.00
5283;BME280;15376;48.540;9.268;2022-08-21T05:46:16;97640.84;;;13.07;100.00
5283;BME280;15376;48.540;9.268;2022-08-21T05:48:41;97640.44;;;13.10;100.00
5283;BME280;15376;48.540;9.268;2022-08-21T05:51:09;97647.09;;;13.20;100.00
5283;BME280;15376;48.540;9.268;2022-08-21T05:53:36;97641.63;;;13.28;100.00
5283;BME280;15376;48.540;9.268;2022-08-21T05:56:02;97639.22;;;13.40;100.00
5283;BME280;15376;48.540;9.268;2022-08-21T05:58:29;97630.41;;;13.40;100.00
5283;BME280;15376;48.540;9.268;2022-08-21T06:00:55;97638.72;;;13.64;100.00
5283;BME280;15376;48.540;9.268;2022-08-21T06:03:23;97633.06;;;13.81;100.00
5283;BME280;15376;48.540;9.268;2022-08-21T06:05:49;97638.66;;;13.99;100.00
5283;BME280;15376;48.540;9.268;2022-08-21T06:08:16;97642.81;;;14.21;100.00
5283;BME280;15376;48.540;9.268;2022-08-21T06:10:43;97640.19;;;14.34;100.00
5283;BME280;15376;48.540;9.268;2022-08-21T06:13:09;97633.22;;;14.47;100.00
5283;BME280;15376;48.540;9.268;2022-08-21T06:15:35;97636.53;;;14.55;100.00
5283;BME280;15376;48.540;9.268;2022-08-21T06:18:00;97646.41;;;14.68;100.00
5283;BME280;15376;48.540;9.268;2022-08-21T06:20:26;97640.66;;;14.71;100.00
5283;BME280;15376;48.540;9.268;2022-08-21T06:22:52;97639.81;;;14.97;100.00
5283;BME280;15376;48.540;9.268;2022-08-21T06:25:17;97635.09;;;15.12;100.00
5283;BME280;15376;48.540;9.268;2022-08-21T06:27:43;97630.31;;;15.21;100.00
5283;BME280;15376;48.540;9.268;2022-08-21T06:30:09;97642.84;;;15.40;100.00
5283;BME280;15376;48.540;9.268;2022-08-21T06:32:35;97645.47;;;15.60;100.00
5283;BME280;15376;48.540;9.268;2022-08-21T06:35:01;97633.16;;;15.52;100.00
5283;BME280;15376;48.540;9.268;2022-08-21T06:37:27;97644.41;;;15.81;100.00
5283;BME280;15376;48.540;9.268;2022-08-21T06:39:52;97644.28;;;16.00;100.00
5283;BME280;15376;48.540;9.268;2022-08-21T06:42:18;97635.81;;;16.10;100.00
5283;BME280;15376;48.540;9.268;2022-08-21T06:44:43;97632.44;;;16.21;100.00
5283;BME280;15376;48.540;9.268;2022-08-21T06:47:09;97629.84;;;16.40;100.00
5283;BME280;15376;48.540;9.268;2022-08-21T06:49:35;97637.63;;;16.48;100.00
5283;BME280;15376;48.540;9.268;2022-08-21T06:52:01;97633.28;;;16.53;100.00
5283;BME280;15376;48.540;9.268;2022-08-21T06:54:26;97641.06;;;16.61;100.00
5283;BME280;15376;48.540;9.268;2022-08-21T06:56:51;97643.28;;;16.71;100.00
5283;BME280;15376;48.540;9.268;2022-08-21T06:59:17;97640.78;;;16.76;100.00
5283;BME280;15376;48.540;9.268;2022-08-21T07:01:42;97634.91;;;16.86;100.00
5283;BME280;15376;48.540;9.268;2022-08-21T07:04:08;97632.34;;;16.97;100.00
5283;BME280;15376;48.540;9.268;2022-08-21T07:06:34;97631.19;;;17.12;100.00
5283;BME280;15376;48.540;9.268;2022-08-21T07:08:59;97628.66;;;17.17;100.00
5283;BME280;15376;48.540;9.268;2022-08-21T07:11:26;97627.16;;;17.21;100.00
5283;BME280;15376;48.540;9.268;2022-08-21T07:13:52;97624.50;;;17.39;100.00
5283;BME280;15376;48.540;9.268;2022-08-21T07:16:20;97597.66;;;17.39;100.00
5283;BME280;15376;48.540;9.268;2022-08-21T07:18:46;97625.03;;;17.66;100.00
5283;BME280;15376;48.540;9.268;2022-08-21T07:21:11;97627.72;;;17.84;100.00
5283;BME280;15376;48.540;9.268;2022-08-21T07:23:40;97631.19;;;18.03;100.00
5283;BME280;15376;48.540;9.268;2022-08-21T07:26:07;97626.47;;;18.17;100.00
5283;BME280;15376;48.540;9.268;2022-08-21T07:28:32;97625.66;;;18.16;100.00
5283;BME280;15376;48.540;9.268;2022-08-21T07:31:00;97614.84;;;18.35;100.00
5283;BME280;15376;48.540;9.268;2022-08-21T07:33:27;97615.31;;;18.43;100.00
5283;BME280;15376;48.540;9.268;2022-08-21T07:35:53;97614.41;;;18.49;100.00
5283;BME280;15376;48.540;9.268;2022-08-21T07:38:20;97614.97;;;18.70;100.00
5283;BME280;15376;48.540;9.268;2022-08-21T07:40:47;97615.22;;;18.50;100.00
5283;BME280;15376;48.540;9.268;2022-08-21T07:43:13;97614.06;;;18.76;100.00
5283;BME280;15376;48.540;9.268;2022-08-21T07:45:41;97609.34;;;18.83;100.00
5283;BME280;15376;48.540;9.268;2022-08-21T07:48:07;97611.84;;;18.96;100.00
5283;BME280;15376;48.540;9.268;2022-08-21T07:50:32;97599.06;;;18.80;100.00
5283;BME280;15376;48.540;9.268;2022-08-21T07:52:57;97610.78;;;18.97;100.00
5283;BME280;15376;48.540;9.268;2022-08-21T07:55:23;97613.38;;;19.04;100.00
5283;BME280;15376;48.540;9.268;2022-08-21T07:57:49;97610.19;;;18.83;100.00
5283;BME280;15376;48.540;9.268;2022-08-21T08:00:18;97606.78;;;18.76;100.00
5283;BME280;15376;48.540;9.268;2022-08-21T08:02:47;97606.22;;;18.97;100.00
5283;BME280;15376;48.540;9.268;2022-08-21T08:05:15;97603.06;;;19.12;100.00
5283;BME280;15376;48.540;9.268;2022-08-21T08:07:41;97607.03;;;19.10;100.00
5283;BME280;15376;48.540;9.268;2022-08-21T08:10:08;97604.59;;;19.08;100.00
5283;BME280;15376;48.540;9.268;2022-08-21T08:12:39;97596.63;;;19.13;97.90
5283;BME280;15376;48.540;9.268;2022-08-21T08:15:09;97602.91;;;19.42;97.63
5283;BME280;15376;48.540;9.268;2022-08-21T08:17:34;97605.59;;;19.65;98.47
5283;BME280;15376;48.540;9.268;2022-08-21T08:20:01;97604.66;;;19.72;92.70
5283;BME280;15376;48.540;9.268;2022-08-21T08:22:27;97601.69;;;19.85;91.38
5283;BME280;15376;48.540;9.268;2022-08-21T08:24:53;97595.84;;;20.05;93.78
5283;BME280;15376;48.540;9.268;2022-08-21T08:27:20;97595.91;;;19.93;90.79
5283;BME280;15376;48.540;9.268;2022-08-21T08:29:46;97591.94;;;19.95;91.21
5283;BME280;15376;48.540;9.268;2022-08-21T08:32:12;97581.78;;;20.03;86.61
5283;BME280;15376;48.540;9.268;2022-08-21T08:34:38;97579.84;;;19.98;82.01
5283;BME280;15376;48.540;9.268;2022-08-21T08:37:06;97584.84;;;20.06;83.71
5283;BME280;15376;48.540;9.268;2022-08-21T08:39:32;97562.63;;;19.99;85.24
5283;BME280;15376;48.540;9.268;2022-08-21T08:42:27;97572.69;;;20.20;84.23
5283;BME280;15376;48.540;9.268;2022-08-21T08:45:20;97567.50;;;20.30;81.86
5283;BME280;15376;48.540;9.268;2022-08-21T08:48:00;97551.00;;;20.44;82.77
5283;BME280;15376;48.540;9.268;2022-08-21T08:53:02;97564.94;;;20.69;81.49
5283;BME280;15376;48.540;9.268;2022-08-21T08:55:40;97564.09;;;20.85;81.25
5283;BME280;15376;48.540;9.268;2022-08-21T08:58:08;97556.00;;;20.85;81.52
5283;BME280;15376;48.540;9.268;2022-08-21T09:00:38;97558.38;;;20.98;80.47
5283;BME280;15376;48.540;9.268;2022-08-21T09:03:04;97560.00;;;20.83;83.55
5283;BME280;15376;48.540;9.268;2022-08-21T09:05:44;97562.03;;;20.92;84.75
5283;BME280;15376;48.540;9.268;2022-08-21T09:08:20;97537.53;;;20.77;85.49
5283;BME280;15376;48.540;9.268;2022-08-21T09:11:04;97553.75;;;21.16;84.07
5283;BME280;15376;48.540;9.268;2022-08-21T09:13:46;97558.91;;;21.17;82.24
5283;BME280;15376;48.540;9.268;2022-08-21T09:16:24;97548.09;;;21.34;81.09
5283;BME280;15376;48.540;9.268;2022-08-21T09:19:07;97549.09;;;21.50;82.28
5283;BME280;15376;48.540;9.268;2022-08-21T09:24:40;97528.41;;;21.60;83.46
5283;BME280;15376;48.540;9.268;2022-08-21T09:27:14;97528.63;;;21.54;80.55
5283;BME280;15376;48.540;9.268;2022-08-21T09:29:44;97536.69;;;21.76;75.87
5283;BME280;15376;48.540;9.268;2022-08-21T09:37:35;97528.38;;;22.04;71.84
5283;BME280;15376;48.540;9.268;2022-08-21T09:42:58;97526.91;;;22.50;66.40
5283;BME280;15376;48.540;9.268;2022-08-21T09:45:24;97526.34;;;23.22;67.60
5283;BME280;15376;48.540;9.268;2022-08-21T09:47:49;97529.75;;;24.58;53.08
5283;BME280;15376;48.540;9.268;2022-08-21T09:50:19;97522.66;;;26.37;49.61
5283;BME280;15376;48.540;9.268;2022-08-21T09:52:51;97526.53;;;27.46;48.52
5283;BME280;15376;48.540;9.268;2022-08-21T09:55:30;97518.19;;;29.20;49.29
5283;BME280;15376;48.540;9.268;2022-08-21T09:58:16;97517.56;;;29.24;42.62
5283;BME280;15376;48.540;9.268;2022-08-21T10:00:42;97514.16;;;30.81;41.24
5283;BME280;15376;48.540;9.268;2022-08-21T10:03:17;97513.25;;;31.65;40.82
5283;BME280;15376;48.540;9.268;2022-08-21T10:08:23;97516.97;;;32.26;38.53
5283;BME280;15376;48.540;9.268;2022-08-21T10:16:48;97492.03;;;33.97;32.21
5283;BME280;15376;48.540;9.268;2022-08-21T10:19:56;97497.97;;;33.02;33.47
5283;BME280;15376;48.540;9.268;2022-08-21T10:33:03;97491.50;;;34.24;31.72
5283;BME280;15376;48.540;9.268;2022-08-21T10:35:37;97470.47;;;34.73;31.82
5283;BME280;15376;48.540;9.268;2022-08-21T10:41:08;97486.91;;;36.53;29.72
5283;BME280;15376;48.540;9.268;2022-08-21T10:52:01;97473.53;;;33.68;30.78
5283;BME280;15376;48.540;9.268;2022-08-21T10:54:39;97474.06;;;35.31;28.46
5283;BME280;15376;48.540;9.268;2022-08-21T10:57:18;97469.66;;;33.69;30.28
5283;BME280;15376;48.540;9.268;2022-08-21T10:59:53;97477.63;;;33.32;33.07
5283;BME280;15376;48.540;9.268;2022-08-21T11:02:53;97473.47;;;33.85;33.87
5283;BME280;15376;48.540;9.268;2022-08-21T11:05:47;97454.72;;;35.43;28.84
5283;BME280;15376;48.540;9.268;2022-08-21T11:08:43;97452.13;;;34.57;30.42
5283;BME280;15376;48.540;9.268;2022-08-21T11:11:26;97458.69;;;34.10;30.64
5283;BME280;15376;48.540;9.268;2022-08-21T11:14:03;97468.31;;;33.75;31.42
5283;BME280;15376;48.540;9.268;2022-08-21T11:19:33;97453.78;;;34.70;26.91
5283;BME280;15376;48.540;9.268;2022-08-21T11:22:40;97452.13;;;35.99;27.11
5283;BME280;15376;48.540;9.268;2022-08-21T11:25:17;97454.69;;;35.92;27.08
5283;BME280;15376;48.540;9.268;2022-08-21T11:28:00;97422.00;;;36.50;25.86
5283;BME280;15376;48.540;9.268;2022-08-21T11:30:37;97438.72;;;34.67;28.87
5283;BME280;15376;48.540;9.268;2022-08-21T11:36:05;97443.75;;;34.11;27.12
5283;BME280;15376;48.540;9.268;2022-08-21T11:38:41;97446.97;;;35.25;27.23
5283;BME280;15376;48.540;9.268;2022-08-21T11:41:24;97437.31;;;35.92;27.05
5283;BME280;15376;48.540;9.268;2022-08-21T11:44:49;97442.38;;;37.01;27.35
5283;BME280;15376;48.540;9.268;2022-08-21T11:47:08;97435.41;;;37.23;26.19
5283;BME280;15376;48.540;9.268;2022-08-21T11:49:53;97415.78;;;35.85;25.80
5283;BME280;15376;48.540;9.268;2022-08-21T11:52:40;97425.38;;;34.69;27.25
5283;BME280;15376;48.540;9.268;2022-08-21T11:55:16;97429.16;;;35.10;25.95
5283;BME280;15376;48.540;9.268;2022-08-21T11:58:04;97417.50;;;33.93;27.72
5283;BME280;15376;48.540;9.268;2022-08-21T12:03:13;97428.34;;;32.03;30.13
5283;BME280;15376;48.540;9.268;2022-08-21T12:05:42;97429.06;;;31.43;31.94
5283;BME280;15376;48.540;9.268;2022-08-21T12:11:04;97422.91;;;30.98;31.87
5283;BME280;15376;48.540;9.268;2022-08-21T12:13:33;97422.13;;;29.22;34.20
5283;BME280;15376;48.540;9.268;2022-08-21T12:16:07;97405.13;;;28.84;35.22
5283;BME280;15376;48.540;9.268;2022-08-21T12:18:33;97417.84;;;28.10;36.29
5283;BME280;15376;48.540;9.268;2022-08-21T12:21:01;97416.25;;;27.90;37.89
5283;BME280;15376;48.540;9.268;2022-08-21T12:24:18;97411.84;;;27.14;38.84
5283;BME280;15376;48.540;9.268;2022-08-21T12:26:27;97421.34;;;27.16;37.35
5283;BME280;15376;48.540;9.268;2022-08-21T12:29:14;97408.59;;;26.59;40.31
5283;BME280;15376;48.540;9.268;2022-08-21T12:34:27;97401.97;;;26.02;39.92
5283;BME280;15376;48.540;9.268;2022-08-21T12:37:05;97386.63;;;26.16;40.45
5283;BME280;15376;48.540;9.268;2022-08-21T12:39:33;97397.94;;;25.55;42.62
5283;BME280;15376;48.540;9.268;2022-08-21T12:42:05;97379.66;;;25.66;42.94
5283;BME280;15376;48.540;9.268;2022-08-21T12:44:49;97400.19;;;25.43;46.39
5283;BME280;15376;48.540;9.268;2022-08-21T12:47:36;97397.78;;;25.37;41.89
5283;BME280;15376;48.540;9.268;2022-08-21T12:50:16;97399.53;;;25.12;44.71
5283;BME280;15376;48.540;9.268;2022-08-21T12:52:51;97397.50;;;25.38;42.91
5283;BME280;15376;48.540;9.268;2022-08-21T12:55:27;97394.66;;;25.09;42.84
5283;BME280;15376;48.540;9.268;2022-08-21T12:57:53;97394.47;;;24.75;44.99
5283;BME280;15376;48.540;9.268;2022-08-21T13:00:21;97392.31;;;24.77;42.12
5283;BME280;15376;48.540;9.268;2022-08-21T13:02:49;97392.88;;;24.64;42.81
5283;BME280;15376;48.540;9.268;2022-08-21T13:05:35;97386.53;;;24.94;43.66
5283;BME280;15376;48.540;9.268;2022-08-21T13:08:05;97389.59;;;24.72;42.32
5283;BME280;15376;48.540;9.268;2022-08-21T13:10:32;97390.41;;;24.78;42.41
5283;BME280;15376;48.540;9.268;2022-08-21T13:13:01;97388.00;;;24.51;44.08
5283;BME280;15376;48.540;9.268;2022-08-21T13:15:31;97363.78;;;24.75;43.23
5283;BME280;15376;48.540;9.268;2022-08-21T13:17:58;97391.44;;;24.97;42.76
5283;BME280;15376;48.540;9.268;2022-08-21T13:20:38;97380.28;;;25.04;45.25
5283;BME280;15376;48.540;9.268;2022-08-21T13:23:25;97364.78;;;24.89;45.46
5283;BME280;15376;48.540;9.268;2022-08-21T13:25:50;97384.03;;;25.13;41.94
5283;BME280;15376;48.540;9.268;2022-08-21T13:28:16;97383.38;;;25.36;42.27
5283;BME280;15376;48.540;9.268;2022-08-21T13:30:45;97363.44;;;24.97;43.63
5283;BME280;15376;48.540;9.268;2022-08-21T13:33:14;97378.13;;;24.85;43.37
5283;BME280;15376;48.540;9.268;2022-08-21T13:35:50;97378.72;;;24.72;43.95
5283;BME280;15376;48.540;9.268;2022-08-21T13:38:19;97374.91;;;24.78;43.43
5283;BME280;15376;48.540;9.268;2022-08-21T13:40:53;97367.25;;;24.96;42.47
5283;BME280;15376;48.540;9.268;2022-08-21T13:43:26;97336.81;;;24.93;42.82
5283;BME280;15376;48.540;9.268;2022-08-21T13:45:55;97365.41;;;25.35;42.46
5283;BME280;15376;48.540;9.268;2022-08-21T13:48:24;97359.22;;;25.24;42.77
5283;BME280;15376;48.540;9.268;2022-08-21T13:50:51;97367.72;;;25.13;45.93
5283;BME280;15376;48.540;9.268;2022-08-21T13:55:51;97363.69;;;25.05;44.82
5283;BME280;15376;48.540;9.268;2022-08-21T13:58:25;97329.84;;;24.72;46.10
5283;BME280;15376;48.540;9.268;2022-08-21T14:00:52;97359.91;;;24.91;42.22
5283;BME280;15376;48.540;9.268;2022-08-21T14:03:31;97353.66;;;24.90;43.89
5283;BME280;15376;48.540;9.268;2022-08-21T14:05:57;97346.03;;;24.92;42.97
5283;BME280;15376;48.540;9.268;2022-08-21T14:08:33;97350.59;;;25.17;42.38
5283;BME280;15376;48.540;9.268;2022-08-21T14:11:00;97351.41;;;25.18;43.21
5283;BME280;15376;48.540;9.268;2022-08-21T14:13:44;97334.19;;;25.27;41.22
5283;BME280;15376;48.540;9.268;2022-08-21T14:18:49;97351.00;;;25.40;43.71
5283;BME280;15376;48.540;9.268;2022-08-21T14:21:24;97337.84;;;25.08;44.81
5283;BME280;15376;48.540;9.268;2022-08-21T14:24:07;97343.25;;;25.18;43.46